Time;durP1;ratioP1;P1;durP2;ratioP2;P2;SDS_P1;SDS_P2;PMS_P1;PMS_P2;Temp;Humidity;BMP_temperature;BMP_pressure;BME280_temperature;BME280_humidity;BME280_pressure;Samples;Min_cycle;Max_cycle;Signal;HPM_P1;HPM_P2
2024/01/12 00:00:16;;;;;;;26.27;13.40;;;0.50;99.90;;;;;;5146564;27;20059;-78
2024/01/12 00:02:41;;;;;;;25.42;13.60;;;0.50;99.90;;;;;;5106579;28;20032;-78
2024/01/12 00:05:08;;;;;;;25.80;14.70;;;0.50;99.90;;;;;;5092924;28;20411;-78
2024/01/12 00:07:34;;;;;;;26.60;14.02;;;0.50;99.90;;;;;;5141140;27;20392;-78
2024/01/12 00:09:59;;;;;;;25.42;13.95;;;0.50;99.90;;;;;;5111660;28;20049;-78
2024/01/12 00:12:25;;;;;;;25.73;13.93;;;0.50;99.90;;;;;;5145176;27;20412;-78
2024/01/12 00:14:51;;;;;;;26.40;14.48;;;0.50;99.90;;;;;;5110664;28;20127;-78
2024/01/12 00:17:19;;;;;;;26.98;14.10;;;0.50;99.90;;;;;;5109378;28;20075;-78
2024/01/12 00:19:48;;;;;;;24.08;14.43;;;0.60;99.90;;;;;;5112070;28;20040;-78
2024/01/12 00:22:14;;;;;;;28.23;13.48;;;0.60;99.90;;;;;;5095138;28;20050;-78
2024/01/12 00:24:39;;;;;;;23.20;12.82;;;0.60;99.90;;;;;;5092464;28;20035;-78
2024/01/12 00:27:05;;;;;;;25.05;15.00;;;0.50;99.90;;;;;;5127737;28;20040;-78
2024/01/12 00:29:31;;;;;;;21.63;11.68;;;0.60;99.90;;;;;;5095023;28;20036;-78
2024/01/12 00:31:57;;;;;;;17.77;11.30;;;0.60;99.90;;;;;;5095307;28;20511;-78
2024/01/12 00:34:23;;;;;;;23.75;12.45;;;0.60;99.90;;;;;;5109373;28;20043;-78
2024/01/12 00:36:49;;;;;;;23.42;12.18;;;0.60;99.90;;;;;;5094346;28;20372;-78
2024/01/12 00:39:17;;;;;;;25.52;13.75;;;0.60;99.90;;;;;;5094336;28;20184;-78
2024/01/12 00:41:43;;;;;;;25.20;13.32;;;0.60;99.90;;;;;;5127478;28;20063;-78
2024/01/12 00:44:08;;;;;;;24.35;13.40;;;0.60;99.90;;;;;;5093349;28;20553;-78
2024/01/12 00:46:34;;;;;;;23.75;13.10;;;0.60;99.90;;;;;;5114186;28;20395;-78
2024/01/12 00:49:00;;;;;;;20.75;12.15;;;0.60;99.90;;;;;;5114693;28;20076;-78
2024/01/12 00:51:26;;;;;;;22.23;12.35;;;0.60;99.90;;;;;;5098544;28;20101;-78
2024/01/12 00:53:51;;;;;;;22.70;11.23;;;0.60;99.90;;;;;;5096235;28;20047;-78
2024/01/12 00:56:17;;;;;;;20.92;11.98;;;0.60;99.90;;;;;;5115013;27;20040;-78
2024/01/12 00:58:43;;;;;;;25.15;12.25;;;0.60;99.90;;;;;;5114363;28;20142;-78
2024/01/12 01:01:09;;;;;;;21.08;11.20;;;0.70;99.90;;;;;;5149412;27;20464;-78
2024/01/12 01:03:38;;;;;;;22.63;10.77;;;0.60;99.90;;;;;;5097294;28;20134;-78
2024/01/12 01:06:05;;;;;;;18.92;11.25;;;0.70;99.90;;;;;;5128025;27;20046;-78
2024/01/12 01:08:30;;;;;;;19.05;9.57;;;0.70;99.90;;;;;;5146972;27;20123;-78
2024/01/12 01:10:56;;;;;;;24.63;10.57;;;0.70;99.90;;;;;;5131797;27;20071;-78
2024/01/12 01:13:22;;;;;;;21.00;8.82;;;0.70;99.90;;;;;;5115184;28;20546;-78
2024/01/12 01:15:48;;;;;;;22.23;9.20;;;0.70;99.90;;;;;;5147972;27;20114;-78
2024/01/12 01:18:15;;;;;;;21.42;9.20;;;0.70;99.90;;;;;;5131250;27;20036;-78
2024/01/12 01:20:41;;;;;;;17.27;9.50;;;0.70;99.90;;;;;;5132216;27;20041;-78
2024/01/12 01:23:06;;;;;;;18.70;9.43;;;0.70;99.90;;;;;;5149371;27;20035;-78
2024/01/12 01:25:32;;;;;;;21.70;11.13;;;0.70;99.90;;;;;;5096045;28;20093;-78
2024/01/12 01:27:58;;;;;;;20.10;8.63;;;0.70;99.90;;;;;;5094447;28;20146;-78
2024/01/12 01:30:23;;;;;;;20.38;8.88;;;0.80;99.90;;;;;;5149322;27;20156;-77
2024/01/12 01:32:49;;;;;;;17.25;8.43;;;0.80;99.90;;;;;;5114613;28;20044;-77
2024/01/12 01:35:16;;;;;;;18.77;7.63;;;0.80;99.90;;;;;;5113126;28;20040;-78
2024/01/12 01:37:42;;;;;;;18.88;8.68;;;0.80;99.90;;;;;;5083567;28;20043;-78
2024/01/12 01:40:08;;;;;;;19.55;9.10;;;0.80;99.90;;;;;;5114477;28;20044;-78
2024/01/12 01:42:34;;;;;;;22.33;8.63;;;0.80;99.90;;;;;;5147520;27;20411;-77
2024/01/12 01:45:03;;;;;;;15.80;7.85;;;0.90;99.90;;;;;;5147221;27;20047;-78
2024/01/12 01:47:29;;;;;;;16.63;8.25;;;0.90;99.90;;;;;;5107386;27;20035;-78
2024/01/12 01:49:56;;;;;;;21.17;7.53;;;0.90;99.90;;;;;;5099397;28;20085;-77
2024/01/12 01:52:23;;;;;;;13.40;7.38;;;0.90;99.90;;;;;;5083439;28;20059;-78
2024/01/12 01:54:49;;;;;;;17.73;7.53;;;0.90;99.90;;;;;;5128917;27;20054;-78
2024/01/12 01:57:15;;;;;;;16.55;8.13;;;0.90;99.90;;;;;;5113497;27;20047;-78
2024/01/12 01:59:41;;;;;;;13.30;7.00;;;0.90;99.90;;;;;;5114015;28;20056;-77
2024/01/12 02:02:08;;;;;;;16.20;7.28;;;0.90;99.90;;;;;;5131382;27;20032;-77
2024/01/12 02:04:34;;;;;;;15.82;5.97;;;1.00;99.90;;;;;;5148631;27;20043;-77
2024/01/12 02:07:01;;;;;;;14.02;6.50;;;1.00;99.90;;;;;;5112447;28;20036;-78
2024/01/12 02:09:28;;;;;;;16.92;7.00;;;1.00;99.90;;;;;;5148535;27;20561;-78
2024/01/12 02:11:54;;;;;;;14.07;6.80;;;1.00;99.90;;;;;;5097048;28;20118;-77
2024/01/12 02:14:20;;;;;;;13.07;6.50;;;1.00;99.90;;;;;;5113899;28;20118;-77
2024/01/12 02:16:46;;;;;;;15.50;6.50;;;1.00;99.90;;;;;;5090382;27;20131;-77
2024/01/12 02:19:12;;;;;;;13.95;6.13;;;1.00;99.90;;;;;;5114106;28;20069;-78
2024/01/12 02:21:38;;;;;;;16.55;6.03;;;1.10;99.90;;;;;;5113833;28;20044;-78
2024/01/12 02:24:03;;;;;;;14.13;6.30;;;1.10;99.90;;;;;;5096017;28;20035;-77
2024/01/12 02:26:29;;;;;;;15.48;5.65;;;1.10;99.90;;;;;;5148440;27;20130;-77
2024/01/12 02:28:56;;;;;;;14.10;5.82;;;1.00;99.90;;;;;;5129677;27;20484;-78
2024/01/12 02:31:22;;;;;;;11.82;5.63;;;1.10;99.90;;;;;;5107882;28;20085;-78
2024/01/12 02:33:49;;;;;;;12.70;5.75;;;1.10;99.90;;;;;;5130269;27;20047;-78
2024/01/12 02:36:14;;;;;;;15.25;5.93;;;1.10;99.90;;;;;;5130886;27;20046;-77
2024/01/12 02:38:40;;;;;;;12.88;5.75;;;1.10;99.90;;;;;;5129884;27;20035;-77
2024/01/12 02:41:06;;;;;;;13.00;5.68;;;1.10;99.90;;;;;;5112986;28;20047;-77
2024/01/12 02:43:31;;;;;;;16.67;6.72;;;1.10;99.90;;;;;;5130295;27;20043;-77
2024/01/12 02:45:57;;;;;;;13.32;5.45;;;1.10;99.90;;;;;;5113245;28;20036;-78
2024/01/12 02:48:22;;;;;;;9.57;5.32;;;1.20;99.90;;;;;;5095538;28;20035;-77
2024/01/12 02:50:48;;;;;;;12.32;5.35;;;1.20;99.90;;;;;;5113180;28;20556;-77
2024/01/12 02:53:14;;;;;;;12.48;5.40;;;1.10;99.90;;;;;;5113871;27;20074;-77
2024/01/12 02:55:39;;;;;;;11.70;5.63;;;1.10;99.90;;;;;;5130013;27;20467;-78
2024/01/12 02:58:05;;;;;;;10.75;5.10;;;1.10;99.90;;;;;;5112098;28;20035;-77
2024/01/12 03:00:31;;;;;;;12.88;5.35;;;1.10;99.90;;;;;;5095249;28;20048;-78
2024/01/12 03:02:56;;;;;;;10.23;4.80;;;1.20;99.90;;;;;;5130454;27;20479;-78
2024/01/12 03:05:22;;;;;;;13.68;5.10;;;1.10;99.90;;;;;;5127979;27;20050;-77
2024/01/12 03:07:49;;;;;;;13.23;6.22;;;1.10;99.90;;;;;;5112482;28;20118;-78
2024/01/12 03:10:17;;;;;;;10.07;5.53;;;1.10;99.90;;;;;;5112912;28;20040;-77
2024/01/12 03:12:43;;;;;;;11.75;5.00;;;1.20;99.90;;;;;;5129888;27;20032;-78
2024/01/12 03:15:08;;;;;;;11.20;5.13;;;1.20;99.90;;;;;;5111907;28;20487;-78
2024/01/12 03:17:34;;;;;;;11.95;5.18;;;1.20;99.90;;;;;;5128462;27;20039;-77
2024/01/12 03:19:59;;;;;;;18.70;7.13;;;1.20;99.90;;;;;;5095617;28;20058;-77
2024/01/12 03:22:25;;;;;;;11.55;5.50;;;1.20;99.90;;;;;;5096133;28;20411;-78
2024/01/12 03:24:51;;;;;;;11.70;5.72;;;1.20;99.90;;;;;;5095493;28;20039;-77
2024/01/12 03:27:16;;;;;;;10.82;5.30;;;1.20;99.90;;;;;;5111622;28;20171;-77
2024/01/12 03:29:42;;;;;;;9.90;4.80;;;1.20;99.90;;;;;;5095674;28;20533;-77
2024/01/12 03:32:07;;;;;;;11.98;5.20;;;1.20;99.90;;;;;;5094911;28;20038;-77
2024/01/12 03:34:33;;;;;;;9.75;4.78;;;1.20;99.90;;;;;;5129658;27;20043;-78
2024/01/12 03:36:59;;;;;;;8.27;4.15;;;1.20;99.90;;;;;;5127829;27;20395;-77
2024/01/12 03:39:24;;;;;;;11.30;4.93;;;1.20;99.90;;;;;;5129569;27;20047;-77
2024/01/12 03:41:50;;;;;;;9.48;4.90;;;1.20;99.90;;;;;;5129366;27;20031;-77
2024/01/12 03:44:15;;;;;;;8.20;4.78;;;1.20;99.90;;;;;;5095447;28;20031;-77
2024/01/12 03:46:41;;;;;;;10.45;4.47;;;1.10;99.90;;;;;;5094317;28;20484;-78
2024/01/12 03:49:07;;;;;;;13.30;4.55;;;1.10;99.90;;;;;;5094550;28;20084;-78
2024/01/12 03:51:32;;;;;;;10.13;4.18;;;1.10;99.90;;;;;;5137528;27;20055;-78
2024/01/12 03:53:58;;;;;;;12.23;4.50;;;1.10;99.90;;;;;;5107517;28;20562;-77
2024/01/12 03:56:23;;;;;;;13.23;4.68;;;1.00;99.90;;;;;;5123290;28;20035;-77
2024/01/12 03:58:49;;;;;;;8.25;3.80;;;1.00;99.90;;;;;;5135115;27;20116;-77
2024/01/12 04:01:15;;;;;;;10.80;3.88;;;1.00;99.90;;;;;;5091639;28;20051;-77
2024/01/12 04:03:41;;;;;;;9.32;4.28;;;0.90;99.90;;;;;;5121951;27;20082;-78
2024/01/12 04:06:08;;;;;;;10.20;4.18;;;0.90;99.90;;;;;;5086576;28;20343;-77
2024/01/12 04:08:33;;;;;;;9.30;4.10;;;0.80;99.90;;;;;;5103271;28;20032;-77
2024/01/12 04:10:59;;;;;;;9.73;4.22;;;0.80;99.90;;;;;;5088927;28;20044;-78
2024/01/12 04:13:25;;;;;;;10.30;4.53;;;0.80;99.90;;;;;;5109661;28;20129;-78
2024/01/12 04:15:51;;;;;;;8.15;3.67;;;0.80;99.90;;;;;;5103568;28;20036;-78
2024/01/12 04:18:16;;;;;;;10.73;4.15;;;0.80;99.90;;;;;;5104619;28;20510;-77
2024/01/12 04:20:42;;;;;;;9.65;4.20;;;0.80;99.90;;;;;;5088119;28;20039;-77
2024/01/12 04:23:08;;;;;;;7.63;3.75;;;0.80;99.90;;;;;;5112047;27;20118;-77
2024/01/12 04:25:33;;;;;;;10.00;4.22;;;0.80;99.90;;;;;;5111533;27;20047;-78
2024/01/12 04:27:59;;;;;;;11.40;4.78;;;0.80;99.90;;;;;;5089444;28;20040;-77
2024/01/12 04:30:24;;;;;;;10.98;4.13;;;0.90;99.90;;;;;;5108011;27;20059;-77
2024/01/12 04:32:50;;;;;;;47.50;42.03;;;0.90;99.90;;;;;;5078726;28;20032;-77
2024/01/12 04:35:16;;;;;;;17.52;10.75;;;0.90;99.90;;;;;;5112570;27;20046;-77
2024/01/12 04:37:42;;;;;;;20.73;11.73;;;0.90;99.90;;;;;;5075200;27;20460;-77
2024/01/12 04:40:08;;;;;;;19.80;9.80;;;1.00;99.90;;;;;;5104247;27;20043;-78
2024/01/12 04:42:34;;;;;;;22.02;11.43;;;1.00;99.90;;;;;;5094114;27;20075;-78
2024/01/12 04:44:59;;;;;;;18.90;10.52;;;1.00;99.90;;;;;;5115042;27;20072;-77
2024/01/12 04:47:25;;;;;;;13.65;6.25;;;1.10;99.90;;;;;;5121472;27;20050;-77
2024/01/12 04:49:51;;;;;;;13.50;6.28;;;1.10;99.90;;;;;;5106423;28;20539;-77
2024/01/12 04:52:16;;;;;;;12.52;5.40;;;1.10;99.90;;;;;;5103498;27;20067;-77
2024/01/12 04:54:42;;;;;;;10.82;4.72;;;1.10;99.90;;;;;;5105245;27;21359;-77
2024/01/12 04:57:07;;;;;;;10.45;4.25;;;1.20;99.90;;;;;;5136888;27;20118;-77
2024/01/12 04:59:33;;;;;;;14.25;4.40;;;1.20;99.90;;;;;;5097841;27;20060;-77
2024/01/12 05:01:59;;;;;;;11.75;3.92;;;1.20;99.90;;;;;;5073203;27;20039;-77
2024/01/12 05:04:24;;;;;;;10.10;4.30;;;1.30;99.90;;;;;;5120957;27;20035;-77
2024/01/12 05:06:50;;;;;;;13.57;4.53;;;1.30;99.90;;;;;;5113266;27;20514;-77
2024/01/12 05:09:15;;;;;;;18.63;5.13;;;1.30;99.90;;;;;;5102702;27;20116;-77
2024/01/12 05:11:41;;;;;;;11.82;4.20;;;1.30;99.90;;;;;;5074439;27;20032;-78
2024/01/12 05:14:07;;;;;;;10.55;4.15;;;1.30;99.90;;;;;;5122141;27;20048;-77
2024/01/12 05:16:32;;;;;;;9.95;4.03;;;1.30;99.90;;;;;;5091423;27;20484;-77
2024/01/12 05:18:58;;;;;;;12.25;3.53;;;1.30;99.90;;;;;;5122594;27;20081;-77
2024/01/12 05:21:24;;;;;;;11.23;3.92;;;1.30;99.90;;;;;;5104937;27;20048;-77
2024/01/12 05:23:49;;;;;;;9.60;3.92;;;1.30;99.90;;;;;;5103690;27;20089;-77
2024/01/12 05:26:15;;;;;;;10.93;4.03;;;1.30;99.90;;;;;;5105685;27;20032;-77
2024/01/12 05:28:41;;;;;;;8.40;3.30;;;1.30;99.90;;;;;;5093827;27;20171;-77
2024/01/12 05:31:09;;;;;;;10.30;3.47;;;1.30;99.90;;;;;;5072693;27;20149;-77
2024/01/12 05:33:34;;;;;;;8.80;3.78;;;1.30;99.90;;;;;;5103642;27;20067;-78
2024/01/12 05:36:00;;;;;;;9.85;3.20;;;1.30;99.90;;;;;;5121968;27;20319;-77
2024/01/12 05:38:26;;;;;;;9.30;3.38;;;1.40;99.90;;;;;;5091313;27;20039;-77
2024/01/12 05:40:51;;;;;;;13.68;3.85;;;1.40;99.90;;;;;;5086333;27;20043;-77
2024/01/12 05:43:18;;;;;;;9.73;3.30;;;1.30;99.90;;;;;;5072292;28;20031;-77
2024/01/12 05:45:43;;;;;;;8.50;3.47;;;1.40;99.90;;;;;;5073148;27;20743;-77
2024/01/12 05:48:10;;;;;;;10.27;3.47;;;1.40;99.90;;;;;;5121461;27;20032;-77
2024/01/12 05:50:36;;;;;;;11.98;3.90;;;1.40;99.90;;;;;;5122336;27;20495;-77
2024/01/12 05:53:01;;;;;;;11.82;4.03;;;1.40;99.90;;;;;;5106557;27;20101;-77
2024/01/12 05:55:27;;;;;;;8.80;3.65;;;1.40;99.90;;;;;;5102036;27;20043;-77
2024/01/12 05:57:52;;;;;;;9.70;3.60;;;1.30;99.90;;;;;;5103592;27;20134;-77
2024/01/12 06:00:18;;;;;;;14.80;4.20;;;1.30;99.90;;;;;;5112607;27;20086;-77
2024/01/12 06:02:44;;;;;;;10.02;3.60;;;1.30;99.90;;;;;;5110674;27;20158;-77
2024/01/12 06:05:09;;;;;;;11.77;3.75;;;1.30;99.90;;;;;;5070169;28;20049;-77
2024/01/12 06:07:35;;;;;;;12.52;4.00;;;1.40;99.90;;;;;;5086705;27;20404;-77
2024/01/12 06:10:01;;;;;;;13.40;4.18;;;1.40;99.90;;;;;;5073432;28;20042;-77
2024/01/12 06:12:26;;;;;;;11.45;3.78;;;1.40;99.90;;;;;;5112146;27;20055;-77
2024/01/12 06:14:53;;;;;;;10.88;4.00;;;1.40;99.90;;;;;;5123835;27;20058;-77
2024/01/12 06:17:19;;;;;;;11.13;3.75;;;1.40;99.90;;;;;;5073534;28;20039;-77
2024/01/12 06:19:44;;;;;;;12.07;4.47;;;1.40;99.90;;;;;;5119184;27;20039;-77
2024/01/12 06:22:10;;;;;;;10.50;3.88;;;1.40;99.90;;;;;;5109256;27;20048;-77
2024/01/12 06:24:35;;;;;;;11.65;3.80;;;1.40;99.90;;;;;;5083124;28;20042;-77
2024/01/12 06:27:02;;;;;;;7.97;3.88;;;1.40;99.90;;;;;;5108347;27;20438;-77
2024/01/12 06:29:28;;;;;;;8.52;4.07;;;1.40;99.90;;;;;;5125833;27;20638;-77
2024/01/12 06:31:53;;;;;;;9.50;4.10;;;1.40;99.90;;;;;;5085564;27;20036;-77
2024/01/12 06:34:19;;;;;;;10.20;4.18;;;1.40;99.90;;;;;;5119145;27;20044;-77
2024/01/12 06:36:45;;;;;;;10.27;4.13;;;1.50;99.90;;;;;;5069552;28;20031;-77
2024/01/12 06:39:11;;;;;;;7.88;3.40;;;1.40;99.90;;;;;;5088977;27;20445;-77
2024/01/12 06:41:43;;;;;;;10.02;3.25;;;1.50;99.90;;;;;;5085349;27;20575;-77
2024/01/12 06:44:09;;;;;;;10.43;4.20;;;1.50;99.90;;;;;;5089358;27;20044;-77
2024/01/12 06:46:40;;;;;;;13.52;4.40;;;1.50;99.90;;;;;;5089001;27;20044;-77
2024/01/12 06:49:05;;;;;;;14.57;5.50;;;1.50;99.90;;;;;;5104650;27;20158;-77
2024/01/12 06:51:31;;;;;;;10.15;4.30;;;1.50;99.90;;;;;;5106181;27;20547;-77
2024/01/12 06:53:56;;;;;;;10.95;4.10;;;1.50;99.90;;;;;;5113904;27;20135;-77
2024/01/12 06:56:22;;;;;;;8.70;3.70;;;1.40;99.90;;;;;;5092139;28;20131;-77
2024/01/12 06:58:47;;;;;;;13.48;5.93;;;1.50;99.90;;;;;;5097369;27;20051;-77
2024/01/12 07:01:19;;;;;;;15.90;7.93;;;1.50;99.90;;;;;;5119124;27;20380;-77
2024/01/12 07:03:45;;;;;;;13.07;6.10;;;1.50;99.90;;;;;;5083837;27;20047;-77
2024/01/12 07:06:11;;;;;;;20.63;8.85;;;1.50;99.90;;;;;;5110057;27;20050;-77
2024/01/12 07:08:37;;;;;;;20.35;8.60;;;1.50;99.90;;;;;;5114124;27;20122;-77
2024/01/12 07:11:03;;;;;;;11.27;5.40;;;1.40;99.90;;;;;;5093692;28;20031;-77
2024/01/12 07:13:29;;;;;;;14.07;5.40;;;1.50;99.90;;;;;;5131364;27;20035;-77
2024/01/12 07:15:54;;;;;;;13.70;4.90;;;1.60;99.90;;;;;;5131020;27;20035;-77
2024/01/12 07:18:20;;;;;;;12.95;5.32;;;1.50;99.90;;;;;;5118430;27;20084;-77
2024/01/12 07:20:46;;;;;;;11.00;4.20;;;1.50;99.90;;;;;;5102178;28;20032;-77
2024/01/12 07:23:11;;;;;;;12.00;4.85;;;1.60;99.90;;;;;;5089252;28;20038;-77
2024/01/12 07:25:38;;;;;;;15.15;5.30;;;1.50;99.90;;;;;;5102511;28;20040;-77
2024/01/12 07:28:05;;;;;;;12.45;4.72;;;1.50;99.90;;;;;;5110422;28;20047;-77
2024/01/12 07:30:31;;;;;;;13.77;6.18;;;1.60;99.90;;;;;;5102236;28;20081;-77
2024/01/12 07:32:57;;;;;;;9.40;3.90;;;1.50;99.90;;;;;;5096115;28;20036;-77
2024/01/12 07:35:23;;;;;;;13.93;4.50;;;1.50;99.90;;;;;;5089663;28;20042;-78
2024/01/12 07:37:50;;;;;;;9.00;4.10;;;1.50;99.90;;;;;;5125673;27;20512;-77
2024/01/12 07:40:16;;;;;;;10.50;5.10;;;1.60;99.90;;;;;;5131869;27;20477;-77
2024/01/12 07:42:42;;;;;;;11.98;5.00;;;1.60;99.90;;;;;;5107195;27;20130;-77
2024/01/12 07:45:10;;;;;;;11.48;4.80;;;1.60;99.90;;;;;;5103123;28;20403;-77
2024/01/12 07:47:36;;;;;;;9.80;4.25;;;1.60;99.90;;;;;;5119501;27;20063;-77
2024/01/12 07:50:01;;;;;;;12.30;5.30;;;1.60;99.90;;;;;;5086060;27;20073;-77
2024/01/12 07:52:27;;;;;;;15.75;5.82;;;1.60;99.90;;;;;;5084688;28;20031;-77
2024/01/12 07:54:53;;;;;;;14.98;5.65;;;1.60;99.90;;;;;;5143578;27;20081;-77
2024/01/12 07:57:18;;;;;;;12.90;5.22;;;1.60;99.90;;;;;;5101965;28;20124;-77
2024/01/12 07:59:44;;;;;;;15.00;5.28;;;1.60;99.90;;;;;;5145947;27;20059;-77
2024/01/12 08:02:09;;;;;;;14.32;4.82;;;1.60;99.90;;;;;;5108856;28;20043;-77
2024/01/12 08:04:37;;;;;;;12.30;5.07;;;1.60;99.90;;;;;;5086331;28;20071;-77
2024/01/12 08:07:03;;;;;;;14.35;4.97;;;1.60;99.90;;;;;;5103900;28;20039;-77
2024/01/12 08:09:29;;;;;;;9.93;4.25;;;1.60;99.90;;;;;;5091147;28;20374;-77
2024/01/12 08:11:55;;;;;;;11.52;4.80;;;1.60;99.90;;;;;;5102067;28;20463;-77
2024/01/12 08:14:20;;;;;;;9.57;4.72;;;1.60;99.90;;;;;;5088972;28;20496;-77
2024/01/12 08:16:47;;;;;;;15.02;5.35;;;1.70;99.90;;;;;;5110540;28;20439;-78
2024/01/12 08:19:13;;;;;;;10.43;4.13;;;1.70;99.90;;;;;;5094384;28;20040;-77
2024/01/12 08:21:38;;;;;;;13.38;4.72;;;1.70;99.90;;;;;;5128631;28;20042;-77
2024/01/12 08:24:04;;;;;;;10.05;4.38;;;1.70;99.90;;;;;;5129157;28;20036;-77
2024/01/12 08:26:30;;;;;;;13.23;4.35;;;1.70;99.90;;;;;;5143112;27;20032;-77
2024/01/12 08:29:01;;;;;;;14.02;4.60;;;1.70;99.90;;;;;;5126785;27;20032;-77
2024/01/12 08:31:28;;;;;;;12.35;4.13;;;1.80;99.90;;;;;;5127889;27;20055;-77
2024/01/12 08:33:53;;;;;;;11.02;4.63;;;1.70;99.90;;;;;;5130592;27;20422;-77
2024/01/12 08:36:19;;;;;;;12.88;4.95;;;1.80;99.90;;;;;;5106897;28;20053;-77
2024/01/12 08:38:45;;;;;;;12.18;4.47;;;1.80;99.90;;;;;;5108694;28;20515;-77
2024/01/12 08:41:10;;;;;;;12.10;4.40;;;1.80;99.90;;;;;;5145655;27;20100;-77
2024/01/12 08:43:36;;;;;;;12.38;4.40;;;1.80;99.90;;;;;;5146266;27;20093;-77
2024/01/12 08:46:02;;;;;;;15.90;4.90;;;1.80;99.90;;;;;;5111328;28;20059;-77
2024/01/12 08:48:28;;;;;;;10.25;4.10;;;1.80;99.90;;;;;;5106475;28;20044;-77
2024/01/12 08:50:53;;;;;;;10.82;4.28;;;1.80;99.90;;;;;;5144235;27;20114;-77
2024/01/12 08:53:19;;;;;;;11.20;4.15;;;1.80;99.90;;;;;;5108771;28;20377;-77
2024/01/12 08:55:45;;;;;;;15.38;4.32;;;1.90;99.90;;;;;;5093298;28;20420;-77
2024/01/12 08:58:10;;;;;;;16.17;4.65;;;1.80;99.90;;;;;;5094041;28;20039;-76
2024/01/12 09:00:36;;;;;;;14.85;4.35;;;1.80;99.90;;;;;;5093711;28;20126;-77
2024/01/12 09:03:03;;;;;;;20.17;5.45;;;1.90;99.90;;;;;;5145314;27;20043;-77
2024/01/12 09:05:28;;;;;;;13.40;4.30;;;1.90;99.90;;;;;;5109785;28;20050;-77
2024/01/12 09:07:54;;;;;;;12.68;4.43;;;1.90;99.90;;;;;;5129045;27;20036;-77
2024/01/12 09:10:19;;;;;;;17.08;5.30;;;1.90;99.90;;;;;;5131998;27;20089;-77
2024/01/12 09:12:45;;;;;;;13.85;4.80;;;2.00;99.90;;;;;;5130147;27;20483;-77
2024/01/12 09:15:11;;;;;;;12.23;4.60;;;2.00;99.90;;;;;;5120276;27;20075;-78
2024/01/12 09:17:36;;;;;;;16.55;4.47;;;2.00;99.90;;;;;;5122673;27;20036;-77
2024/01/12 09:20:02;;;;;;;16.50;4.45;;;2.10;99.90;;;;;;5077866;28;20039;-77
2024/01/12 09:22:28;;;;;;;11.73;3.70;;;2.00;99.90;;;;;;5076760;28;20064;-76
2024/01/12 09:24:54;;;;;;;10.65;3.67;;;2.10;99.90;;;;;;5117432;27;20427;-78
2024/01/12 09:27:19;;;;;;;18.15;4.25;;;2.20;99.90;;;;;;5093811;28;20032;-77
2024/01/12 09:29:45;;;;;;;12.40;3.78;;;2.10;99.90;;;;;;5094428;28;20032;-77
2024/01/12 09:32:11;;;;;;;10.73;3.22;;;2.20;99.90;;;;;;5094782;28;20616;-77
2024/01/12 09:34:36;;;;;;;11.18;3.75;;;2.10;99.90;;;;;;5095832;28;20075;-77
2024/01/12 09:37:02;;;;;;;11.15;3.72;;;2.10;99.90;;;;;;5113483;28;20039;-77
2024/01/12 09:39:28;;;;;;;8.50;3.55;;;2.10;99.90;;;;;;5115827;27;20044;-77
2024/01/12 09:42:00;;;;;;;12.88;3.70;;;2.10;99.90;;;;;;5076795;28;20063;-77
2024/01/12 09:44:26;;;;;;;;;;;2.20;99.90;;;;;;5077260;28;20082;-77
2024/01/12 09:46:57;;;;;;;15.40;4.03;;;2.20;99.90;;;;;;5111000;28;20346;-77
2024/01/12 09:49:27;;;;;;;13.32;3.30;;;2.30;99.90;;;;;;5096412;28;20499;-78
2024/01/12 09:51:52;;;;;;;10.90;3.28;;;2.30;99.90;;;;;;5097130;28;20123;-77
2024/01/12 09:54:18;;;;;;;13.73;3.45;;;2.40;99.90;;;;;;5114506;28;20126;-77
2024/01/12 09:56:46;;;;;;;15.10;4.40;;;2.30;99.90;;;;;;5095538;28;20123;-78
2024/01/12 09:59:12;;;;;;;12.60;3.35;;;2.40;99.90;;;;;;5113040;28;20087;-78
2024/01/12 10:01:42;;;;;;;14.18;3.22;;;2.50;99.90;;;;;;5113928;28;20070;-77
2024/01/12 10:04:08;;;;;;;11.63;3.00;;;2.40;99.90;;;;;;5114020;28;20126;-78
2024/01/12 10:06:37;;;;;;;10.70;2.75;;;2.50;99.90;;;;;;5095491;28;20036;-77
2024/01/12 10:09:03;;;;;;;15.40;3.10;;;2.50;99.90;;;;;;5130232;27;20076;-77
2024/01/12 10:11:29;;;;;;;12.38;3.13;;;2.50;99.90;;;;;;5095869;28;20042;-77
2024/01/12 10:13:55;;;;;;;13.93;3.63;;;2.50;99.90;;;;;;5096718;28;20126;-77
2024/01/12 10:16:28;;;;;;;16.35;3.45;;;2.60;99.90;;;;;;5113290;28;20450;-77
2024/01/12 10:18:56;;;;;;;12.05;2.90;;;2.60;99.90;;;;;;5094987;28;20039;-78
2024/01/12 10:21:22;;;;;;;10.02;2.33;;;2.60;99.90;;;;;;5113123;27;20035;-77
2024/01/12 10:23:47;;;;;;;11.07;2.22;;;2.70;99.90;;;;;;5130728;27;20054;-77
2024/01/12 10:26:16;;;;;;;14.68;2.95;;;2.70;99.90;;;;;;5113523;28;20082;-77
2024/01/12 10:28:42;;;;;;;14.90;3.17;;;2.80;99.90;;;;;;5129608;27;20114;-77
2024/01/12 10:31:08;;;;;;;13.40;2.70;;;2.80;99.90;;;;;;5096975;28;20078;-77
2024/01/12 10:33:34;;;;;;;11.43;2.00;;;2.90;99.90;;;;;;5103221;28;20044;-77
2024/01/12 10:36:10;;;;;;;14.23;2.13;;;3.00;99.90;;;;;;5076484;28;20036;-77
2024/01/12 10:38:38;;;;;;;17.20;2.42;;;3.00;99.90;;;;;;5126747;27;20097;-77
2024/01/12 10:41:06;;;;;;;19.08;2.28;;;3.10;99.90;;;;;;5145181;27;20467;-78
2024/01/12 10:43:37;;;;;;;19.42;2.72;;;3.20;99.90;;;;;;5095594;28;20028;-77
2024/01/12 10:46:15;;;;;;;12.77;2.22;;;3.30;99.90;;;;;;5113399;28;20377;-77
2024/01/12 10:49:09;;;;;;;12.77;2.45;;;3.30;99.90;;;;;;5110456;28;20110;-77
2024/01/12 10:51:39;;;;;;;12.45;2.22;;;3.40;99.90;;;;;;5093207;28;20370;-77
2024/01/12 10:54:12;;;;;;;15.23;2.05;;;3.50;99.90;;;;;;5121699;27;20499;-77
2024/01/12 10:56:39;;;;;;;18.52;2.53;;;3.50;99.90;;;;;;5095927;28;20480;-78
2024/01/12 10:59:06;;;;;;;14.63;2.28;;;3.60;99.90;;;;;;5111644;28;20070;-77
2024/01/12 11:01:34;;;;;;;10.48;2.00;;;3.60;99.90;;;;;;5112595;28;20047;-77
2024/01/12 11:04:00;;;;;;;15.38;2.25;;;3.60;99.90;;;;;;5095375;28;20039;-77
2024/01/12 11:06:29;;;;;;;14.68;2.20;;;3.70;99.90;;;;;;5111852;28;20072;-77
2024/01/12 11:08:56;;;;;;;12.20;1.90;;;3.70;99.90;;;;;;5094298;28;20062;-77
2024/01/12 11:11:29;;;;;;;10.40;2.63;;;3.70;99.90;;;;;;5095980;28;20532;-77
2024/01/12 11:13:55;;;;;;;13.35;1.77;;;3.70;99.90;;;;;;5093189;28;20032;-77
2024/01/12 11:16:21;;;;;;;13.07;1.70;;;3.70;99.90;;;;;;5106814;28;20171;-83
2024/01/12 11:18:47;;;;;;;10.88;1.77;;;3.70;99.90;;;;;;5092977;28;20051;-77
2024/01/12 11:21:23;;;;;;;13.10;1.70;;;3.80;99.90;;;;;;5101872;27;20543;-76
2024/01/12 11:23:49;;;;;;;11.07;2.08;;;3.80;99.90;;;;;;5104397;27;20120;-76
2024/01/12 11:26:15;;;;;;;10.60;1.75;;;3.80;99.90;;;;;;5134649;27;20126;-76
2024/01/12 11:28:40;;;;;;;12.98;1.55;;;3.80;99.90;;;;;;5086821;28;20066;-76
2024/01/12 11:31:06;;;;;;;9.25;1.45;;;3.80;99.90;;;;;;5110534;28;20039;-76
2024/01/12 11:33:41;;;;;;;17.08;1.90;;;3.80;99.90;;;;;;5145116;27;20028;-76
2024/01/12 11:36:13;;;;;;;13.43;2.80;;;3.90;99.90;;;;;;5087907;28;20043;-76
2024/01/12 11:38:40;;;;;;;11.50;1.77;;;3.80;99.90;;;;;;5095239;28;20039;-76
2024/01/12 11:41:11;;;;;;;13.73;1.75;;;3.80;99.90;;;;;;5108725;27;20063;-76
2024/01/12 11:43:36;;;;;;;12.23;2.07;;;3.90;99.90;;;;;;5101959;28;20048;-76
2024/01/12 11:46:03;;;;;;;15.40;2.53;;;3.90;99.90;;;;;;5117538;27;20654;-76
2024/01/12 11:48:29;;;;;;;12.80;2.08;;;3.90;99.90;;;;;;5127300;27;20476;-76
2024/01/12 11:50:54;;;;;;;22.75;2.88;;;4.00;99.90;;;;;;5093469;28;20365;-76
2024/01/12 11:53:20;;;;;;;9.77;1.65;;;3.90;99.90;;;;;;5112219;28;20038;-75
2024/01/12 11:55:46;;;;;;;10.95;2.80;;;3.90;99.90;;;;;;5146229;27;20031;-75
2024/01/12 11:58:12;;;;;;;14.73;2.00;;;3.90;99.90;;;;;;5109543;28;20032;-75
2024/01/12 12:00:38;;;;;;;16.30;3.33;;;4.00;99.90;;;;;;5127236;28;20053;-76
2024/01/12 12:03:03;;;;;;;13.18;2.40;;;3.90;99.90;;;;;;5086045;28;20036;-75
2024/01/12 12:05:29;;;;;;;11.68;1.88;;;3.90;99.90;;;;;;5125118;28;20035;-76
2024/01/12 12:07:55;;;;;;;13.05;2.00;;;4.00;99.90;;;;;;5132608;27;20491;-76
2024/01/12 12:10:22;;;;;;;11.82;1.80;;;4.00;99.90;;;;;;5133163;27;20391;-76
2024/01/12 12:12:48;;;;;;;14.68;2.47;;;4.00;99.90;;;;;;5128734;27;20032;-76
2024/01/12 12:15:14;;;;;;;12.35;2.25;;;4.00;99.90;;;;;;5112196;28;20380;-76
2024/01/12 12:17:46;;;;;;;13.48;2.13;;;4.10;99.90;;;;;;5124225;27;20586;-76
2024/01/12 12:20:12;;;;;;;15.50;2.17;;;4.10;99.90;;;;;;5095697;28;20071;-76
2024/01/12 12:22:43;;;;;;;13.45;2.00;;;4.10;99.90;;;;;;5111338;28;20445;-76
2024/01/12 12:25:09;;;;;;;15.43;2.42;;;4.20;99.90;;;;;;5088562;28;20082;-76
2024/01/12 12:27:39;;;;;;;15.15;2.28;;;4.20;99.90;;;;;;5091355;28;20119;-76
2024/01/12 12:30:10;;;;;;;14.90;2.38;;;4.20;99.90;;;;;;5103210;28;20463;-76
2024/01/12 12:32:41;;;;;;;15.35;2.17;;;4.20;99.90;;;;;;5110150;28;20373;-76
2024/01/12 12:35:13;;;;;;;12.18;1.75;;;4.20;99.90;;;;;;5093974;28;20043;-76
2024/01/12 12:37:42;;;;;;;15.93;3.08;;;4.20;99.90;;;;;;5128972;28;20383;-76
2024/01/12 12:40:11;;;;;;;14.23;2.45;;;4.20;99.90;;;;;;5126854;27;20052;-76
2024/01/12 12:42:38;;;;;;;17.13;2.20;;;4.20;99.90;;;;;;5108213;28;20050;-76